sensor_id;sensor_type;location;lat;lon;timestamp;P1;durP1;ratioP1;P2;durP2;ratioP2
34775;SDS011;20989;52.566;13.346;2022-11-15T00:01:14;4.70;;;4.30;;
34775;SDS011;20989;52.566;13.346;2022-11-15T00:04:17;5.20;;;4.80;;
34775;SDS011;20989;52.566;13.346;2022-11-15T00:07:17;5.10;;;4.70;;
34775;SDS011;20989;52.566;13.346;2022-11-15T00:10:18;5.03;;;4.57;;
34775;SDS011;20989;52.566;13.346;2022-11-15T00:13:19;4.88;;;4.47;;
34775;SDS011;20989;52.566;13.346;2022-11-15T00:16:19;5.75;;;5.20;;
34775;SDS011;20989;52.566;13.346;2022-11-15T00:19:20;5.05;;;4.65;;
34775;SDS011;20989;52.566;13.346;2022-11-15T00:22:22;5.65;;;5.25;;
34775;SDS011;20989;52.566;13.346;2022-11-15T00:25:22;4.60;;;4.30;;
34775;SDS011;20989;52.566;13.346;2022-11-15T00:28:23;5.40;;;5.00;;
34775;SDS011;20989;52.566;13.346;2022-11-15T00:31:24;5.32;;;4.82;;
34775;SDS011;20989;52.566;13.346;2022-11-15T00:34:25;4.90;;;4.50;;
34775;SDS011;20989;52.566;13.346;2022-11-15T00:37:25;5.20;;;4.80;;
34775;SDS011;20989;52.566;13.346;2022-11-15T00:40:26;5.18;;;4.75;;
34775;SDS011;20989;52.566;13.346;2022-11-15T00:43:27;4.85;;;4.55;;
34775;SDS011;20989;52.566;13.346;2022-11-15T00:46:27;5.00;;;4.60;;
34775;SDS011;20989;52.566;13.346;2022-11-15T00:49:28;5.05;;;4.65;;
34775;SDS011;20989;52.566;13.346;2022-11-15T00:52:28;5.10;;;4.70;;
34775;SDS011;20989;52.566;13.346;2022-11-15T00:55:29;4.63;;;4.32;;
34775;SDS011;20989;52.566;13.346;2022-11-15T00:58:30;4.85;;;4.50;;
34775;SDS011;20989;52.566;13.346;2022-11-15T01:01:30;4.65;;;4.35;;
34775;SDS011;20989;52.566;13.346;2022-11-15T01:04:31;5.18;;;4.78;;
34775;SDS011;20989;52.566;13.346;2022-11-15T01:07:32;5.00;;;4.60;;
34775;SDS011;20989;52.566;13.346;2022-11-15T01:10:33;4.60;;;4.30;;
34775;SDS011;20989;52.566;13.346;2022-11-15T01:13:34;5.03;;;4.68;;
34775;SDS011;20989;52.566;13.346;2022-11-15T01:16:35;4.63;;;4.22;;
34775;SDS011;20989;52.566;13.346;2022-11-15T01:19:36;4.68;;;4.38;;
34775;SDS011;20989;52.566;13.346;2022-11-15T01:22:36;4.80;;;4.40;;
34775;SDS011;20989;52.566;13.346;2022-11-15T01:25:37;4.55;;;4.22;;
34775;SDS011;20989;52.566;13.346;2022-11-15T01:28:39;4.88;;;4.47;;
34775;SDS011;20989;52.566;13.346;2022-11-15T01:31:41;4.68;;;4.32;;
34775;SDS011;20989;52.566;13.346;2022-11-15T01:34:41;4.43;;;4.07;;
34775;SDS011;20989;52.566;13.346;2022-11-15T01:37:42;4.63;;;4.30;;
34775;SDS011;20989;52.566;13.346;2022-11-15T01:40:43;4.90;;;4.53;;
34775;SDS011;20989;52.566;13.346;2022-11-15T01:43:43;5.60;;;4.70;;
34775;SDS011;20989;52.566;13.346;2022-11-15T01:46:45;4.35;;;4.05;;
34775;SDS011;20989;52.566;13.346;2022-11-15T01:53:05;4.50;;;4.15;;
34775;SDS011;20989;52.566;13.346;2022-11-15T01:56:06;4.85;;;4.45;;
34775;SDS011;20989;52.566;13.346;2022-11-15T01:59:10;5.05;;;4.65;;
34775;SDS011;20989;52.566;13.346;2022-11-15T02:02:11;4.78;;;4.38;;
34775;SDS011;20989;52.566;13.346;2022-11-15T02:05:13;5.00;;;4.60;;
34775;SDS011;20989;52.566;13.346;2022-11-15T02:08:14;4.57;;;4.25;;
34775;SDS011;20989;52.566;13.346;2022-11-15T02:11:19;4.32;;;4.03;;
34775;SDS011;20989;52.566;13.346;2022-11-15T02:14:20;4.88;;;4.38;;
34775;SDS011;20989;52.566;13.346;2022-11-15T02:17:28;4.70;;;4.30;;
34775;SDS011;20989;52.566;13.346;2022-11-15T02:34:26;4.95;;;4.55;;
34775;SDS011;20989;52.566;13.346;2022-11-15T02:37:44;4.88;;;4.47;;
34775;SDS011;20989;52.566;13.346;2022-11-15T02:41:16;4.40;;;4.07;;
34775;SDS011;20989;52.566;13.346;2022-11-15T02:44:29;4.75;;;4.45;;
34775;SDS011;20989;52.566;13.346;2022-11-15T02:47:34;4.88;;;4.47;;
34775;SDS011;20989;52.566;13.346;2022-11-15T02:50:43;4.55;;;4.20;;
34775;SDS011;20989;52.566;13.346;2022-11-15T02:53:45;4.32;;;4.03;;
34775;SDS011;20989;52.566;13.346;2022-11-15T02:56:46;4.90;;;4.50;;
34775;SDS011;20989;52.566;13.346;2022-11-15T03:03:03;5.00;;;4.50;;
34775;SDS011;20989;52.566;13.346;2022-11-15T03:06:35;4.93;;;4.53;;
34775;SDS011;20989;52.566;13.346;2022-11-15T03:10:06;4.35;;;4.05;;
34775;SDS011;20989;52.566;13.346;2022-11-15T03:13:19;4.43;;;4.13;;
34775;SDS011;20989;52.566;13.346;2022-11-15T03:16:37;4.30;;;4.00;;
34775;SDS011;20989;52.566;13.346;2022-11-15T03:20:09;4.80;;;4.50;;
34775;SDS011;20989;52.566;13.346;2022-11-15T03:23:11;4.75;;;4.35;;
34775;SDS011;20989;52.566;13.346;2022-11-15T03:26:13;4.53;;;4.22;;
34775;SDS011;20989;52.566;13.346;2022-11-15T03:29:20;4.63;;;4.22;;
34775;SDS011;20989;52.566;13.346;2022-11-15T03:35:30;4.60;;;4.20;;
34775;SDS011;20989;52.566;13.346;2022-11-15T03:38:37;4.80;;;4.40;;
34775;SDS011;20989;52.566;13.346;2022-11-15T03:44:59;4.75;;;4.35;;
34775;SDS011;20989;52.566;13.346;2022-11-15T03:48:10;4.72;;;4.32;;
34775;SDS011;20989;52.566;13.346;2022-11-15T03:51:15;4.40;;;4.10;;
34775;SDS011;20989;52.566;13.346;2022-11-15T03:54:17;4.28;;;3.97;;
34775;SDS011;20989;52.566;13.346;2022-11-15T03:57:17;4.63;;;4.28;;
34775;SDS011;20989;52.566;13.346;2022-11-15T04:00:18;4.85;;;4.55;;
34775;SDS011;20989;52.566;13.346;2022-11-15T04:03:19;4.03;;;3.72;;
34775;SDS011;20989;52.566;13.346;2022-11-15T04:06:20;5.20;;;4.80;;
34775;SDS011;20989;52.566;13.346;2022-11-15T04:09:20;4.13;;;3.90;;
34775;SDS011;20989;52.566;13.346;2022-11-15T04:12:21;4.97;;;4.47;;
34775;SDS011;20989;52.566;13.346;2022-11-15T04:15:30;4.60;;;4.30;;
34775;SDS011;20989;52.566;13.346;2022-11-15T04:18:31;4.40;;;4.10;;
34775;SDS011;20989;52.566;13.346;2022-11-15T04:21:32;4.10;;;3.83;;
34775;SDS011;20989;52.566;13.346;2022-11-15T04:24:51;4.55;;;4.20;;
34775;SDS011;20989;52.566;13.346;2022-11-15T04:27:51;4.60;;;4.20;;
34775;SDS011;20989;52.566;13.346;2022-11-15T04:30:52;3.80;;;3.60;;
34775;SDS011;20989;52.566;13.346;2022-11-15T04:33:53;4.75;;;4.35;;
34775;SDS011;20989;52.566;13.346;2022-11-15T04:36:54;4.45;;;4.15;;
34775;SDS011;20989;52.566;13.346;2022-11-15T04:40:13;5.00;;;4.60;;
34775;SDS011;20989;52.566;13.346;2022-11-15T04:43:13;4.30;;;4.00;;
34775;SDS011;20989;52.566;13.346;2022-11-15T04:46:14;4.50;;;4.20;;
34775;SDS011;20989;52.566;13.346;2022-11-15T04:49:14;4.18;;;3.92;;
34775;SDS011;20989;52.566;13.346;2022-11-15T04:52:15;4.70;;;4.40;;
34775;SDS011;20989;52.566;13.346;2022-11-15T04:55:16;3.53;;;3.33;;
34775;SDS011;20989;52.566;13.346;2022-11-15T04:58:16;4.32;;;4.03;;
34775;SDS011;20989;52.566;13.346;2022-11-15T05:01:18;4.30;;;4.00;;
34775;SDS011;20989;52.566;13.346;2022-11-15T05:04:19;4.03;;;3.72;;
34775;SDS011;20989;52.566;13.346;2022-11-15T05:07:19;3.80;;;3.53;;
34775;SDS011;20989;52.566;13.346;2022-11-15T05:10:20;4.38;;;4.07;;
34775;SDS011;20989;52.566;13.346;2022-11-15T05:13:21;4.55;;;4.22;;
34775;SDS011;20989;52.566;13.346;2022-11-15T05:16:22;3.88;;;3.63;;
34775;SDS011;20989;52.566;13.346;2022-11-15T05:19:22;4.53;;;4.22;;
34775;SDS011;20989;52.566;13.346;2022-11-15T05:22:23;3.95;;;3.65;;
34775;SDS011;20989;52.566;13.346;2022-11-15T05:25:24;4.57;;;4.18;;
34775;SDS011;20989;52.566;13.346;2022-11-15T05:28:25;4.40;;;4.03;;
34775;SDS011;20989;52.566;13.346;2022-11-15T05:31:26;4.15;;;3.90;;
34775;SDS011;20989;52.566;13.346;2022-11-15T05:34:27;4.70;;;4.35;;
34775;SDS011;20989;52.566;13.346;2022-11-15T05:37:28;3.60;;;3.40;;
34775;SDS011;20989;52.566;13.346;2022-11-15T05:40:29;4.88;;;4.47;;
34775;SDS011;20989;52.566;13.346;2022-11-15T05:43:31;4.47;;;4.07;;
34775;SDS011;20989;52.566;13.346;2022-11-15T05:46:35;4.60;;;4.30;;
34775;SDS011;20989;52.566;13.346;2022-11-15T05:49:39;4.45;;;4.15;;
34775;SDS011;20989;52.566;13.346;2022-11-15T05:52:42;4.28;;;3.97;;
34775;SDS011;20989;52.566;13.346;2022-11-15T05:55:45;3.97;;;3.67;;
34775;SDS011;20989;52.566;13.346;2022-11-15T05:58:46;4.28;;;3.97;;
34775;SDS011;20989;52.566;13.346;2022-11-15T06:01:47;3.83;;;3.63;;
34775;SDS011;20989;52.566;13.346;2022-11-15T06:04:48;4.28;;;3.97;;
34775;SDS011;20989;52.566;13.346;2022-11-15T06:07:49;4.00;;;3.70;;
34775;SDS011;20989;52.566;13.346;2022-11-15T06:10:49;4.00;;;3.72;;
34775;SDS011;20989;52.566;13.346;2022-11-15T06:13:50;4.55;;;4.25;;
34775;SDS011;20989;52.566;13.346;2022-11-15T06:16:51;4.25;;;3.95;;
34775;SDS011;20989;52.566;13.346;2022-11-15T06:19:52;3.95;;;3.75;;
34775;SDS011;20989;52.566;13.346;2022-11-15T06:22:59;4.18;;;3.88;;
34775;SDS011;20989;52.566;13.346;2022-11-15T06:26:01;4.47;;;4.18;;
34775;SDS011;20989;52.566;13.346;2022-11-15T06:29:03;7.80;;;4.60;;
34775;SDS011;20989;52.566;13.346;2022-11-15T06:32:04;5.57;;;4.18;;
34775;SDS011;20989;52.566;13.346;2022-11-15T06:35:05;6.20;;;4.28;;
34775;SDS011;20989;52.566;13.346;2022-11-15T06:38:07;4.80;;;4.47;;
34775;SDS011;20989;52.566;13.346;2022-11-15T06:41:09;5.25;;;4.13;;
34775;SDS011;20989;52.566;13.346;2022-11-15T06:44:12;4.70;;;4.30;;
34775;SDS011;20989;52.566;13.346;2022-11-15T06:47:12;4.00;;;3.65;;
34775;SDS011;20989;52.566;13.346;2022-11-15T06:50:13;3.92;;;3.70;;
34775;SDS011;20989;52.566;13.346;2022-11-15T06:53:14;4.32;;;4.03;;
34775;SDS011;20989;52.566;13.346;2022-11-15T06:56:14;4.22;;;3.92;;
34775;SDS011;20989;52.566;13.346;2022-11-15T06:59:15;3.97;;;3.67;;
34775;SDS011;20989;52.566;13.346;2022-11-15T07:02:16;4.88;;;3.78;;
34775;SDS011;20989;52.566;13.346;2022-11-15T07:05:16;4.85;;;4.45;;
34775;SDS011;20989;52.566;13.346;2022-11-15T07:08:18;4.15;;;3.85;;
34775;SDS011;20989;52.566;13.346;2022-11-15T07:11:19;3.78;;;3.58;;
34775;SDS011;20989;52.566;13.346;2022-11-15T07:14:20;4.38;;;3.97;;
34775;SDS011;20989;52.566;13.346;2022-11-15T07:17:20;5.63;;;3.92;;
34775;SDS011;20989;52.566;13.346;2022-11-15T07:20:21;4.68;;;4.32;;
34775;SDS011;20989;52.566;13.346;2022-11-15T07:23:22;4.05;;;3.72;;
34775;SDS011;20989;52.566;13.346;2022-11-15T07:26:22;4.32;;;3.78;;
34775;SDS011;20989;52.566;13.346;2022-11-15T07:29:23;4.05;;;3.75;;
34775;SDS011;20989;52.566;13.346;2022-11-15T07:32:24;3.97;;;3.70;;
34775;SDS011;20989;52.566;13.346;2022-11-15T07:35:25;5.30;;;4.03;;
34775;SDS011;20989;52.566;13.346;2022-11-15T07:38:26;4.75;;;4.35;;
34775;SDS011;20989;52.566;13.346;2022-11-15T07:41:28;5.72;;;4.20;;
34775;SDS011;20989;52.566;13.346;2022-11-15T07:44:29;4.03;;;3.72;;
34775;SDS011;20989;52.566;13.346;2022-11-15T07:47:30;4.53;;;4.18;;
34775;SDS011;20989;52.566;13.346;2022-11-15T07:50:33;4.78;;;4.10;;
34775;SDS011;20989;52.566;13.346;2022-11-15T07:53:33;4.22;;;3.92;;
34775;SDS011;20989;52.566;13.346;2022-11-15T07:56:34;4.45;;;4.15;;
34775;SDS011;20989;52.566;13.346;2022-11-15T07:59:35;5.40;;;3.88;;
34775;SDS011;20989;52.566;13.346;2022-11-15T08:02:36;15.88;;;4.80;;
34775;SDS011;20989;52.566;13.346;2022-11-15T08:05:37;5.05;;;4.65;;
34775;SDS011;20989;52.566;13.346;2022-11-15T08:08:39;7.63;;;4.10;;
34775;SDS011;20989;52.566;13.346;2022-11-15T08:11:40;6.55;;;3.75;;
34775;SDS011;20989;52.566;13.346;2022-11-15T08:14:40;5.40;;;3.90;;
34775;SDS011;20989;52.566;13.346;2022-11-15T08:17:42;6.60;;;3.78;;
34775;SDS011;20989;52.566;13.346;2022-11-15T08:20:43;4.20;;;3.83;;
34775;SDS011;20989;52.566;13.346;2022-11-15T08:23:44;4.00;;;3.70;;
34775;SDS011;20989;52.566;13.346;2022-11-15T08:26:45;5.80;;;3.80;;
34775;SDS011;20989;52.566;13.346;2022-11-15T08:29:47;4.95;;;4.53;;
34775;SDS011;20989;52.566;13.346;2022-11-15T08:32:49;4.40;;;4.00;;
34775;SDS011;20989;52.566;13.346;2022-11-15T08:35:50;4.75;;;3.53;;
34775;SDS011;20989;52.566;13.346;2022-11-15T08:38:51;5.20;;;3.60;;
34775;SDS011;20989;52.566;13.346;2022-11-15T08:41:52;4.05;;;3.75;;
34775;SDS011;20989;52.566;13.346;2022-11-15T08:44:53;3.50;;;3.30;;
34775;SDS011;20989;52.566;13.346;2022-11-15T08:47:54;7.10;;;3.80;;
34775;SDS011;20989;52.566;13.346;2022-11-15T08:50:55;6.47;;;4.57;;
34775;SDS011;20989;52.566;13.346;2022-11-15T08:53:56;4.30;;;3.90;;
34775;SDS011;20989;52.566;13.346;2022-11-15T08:56:57;3.67;;;3.38;;
34775;SDS011;20989;52.566;13.346;2022-11-15T08:59:57;5.97;;;3.58;;
34775;SDS011;20989;52.566;13.346;2022-11-15T09:02:58;11.07;;;5.82;;
34775;SDS011;20989;52.566;13.346;2022-11-15T09:06:00;9.88;;;5.82;;
34775;SDS011;20989;52.566;13.346;2022-11-15T09:09:01;6.25;;;4.97;;
34775;SDS011;20989;52.566;13.346;2022-11-15T09:12:03;6.35;;;5.65;;
34775;SDS011;20989;52.566;13.346;2022-11-15T09:15:05;6.10;;;5.53;;
34775;SDS011;20989;52.566;13.346;2022-11-15T09:18:06;7.35;;;4.78;;
34775;SDS011;20989;52.566;13.346;2022-11-15T09:21:07;20.48;;;5.40;;
34775;SDS011;20989;52.566;13.346;2022-11-15T09:24:08;13.55;;;5.38;;
34775;SDS011;20989;52.566;13.346;2022-11-15T09:27:09;11.73;;;6.07;;
34775;SDS011;20989;52.566;13.346;2022-11-15T09:30:10;11.70;;;6.10;;
34775;SDS011;20989;52.566;13.346;2022-11-15T09:33:12;10.05;;;5.60;;
34775;SDS011;20989;52.566;13.346;2022-11-15T09:36:13;6.72;;;4.90;;
34775;SDS011;20989;52.566;13.346;2022-11-15T09:39:13;17.42;;;11.13;;
34775;SDS011;20989;52.566;13.346;2022-11-15T09:48:58;16.20;;;9.80;;
34775;SDS011;20989;52.566;13.346;2022-11-15T09:52:00;10.02;;;8.48;;
34775;SDS011;20989;52.566;13.346;2022-11-15T09:55:02;10.75;;;9.50;;
34775;SDS011;20989;52.566;13.346;2022-11-15T09:58:15;9.32;;;7.88;;
34775;SDS011;20989;52.566;13.346;2022-11-15T10:05:12;10.93;;;7.57;;
34775;SDS011;20989;52.566;13.346;2022-11-15T10:11:48;13.30;;;6.85;;
34775;SDS011;20989;52.566;13.346;2022-11-15T10:14:50;7.53;;;6.82;;
34775;SDS011;20989;52.566;13.346;2022-11-15T10:18:04;11.98;;;6.88;;
34775;SDS011;20989;52.566;13.346;2022-11-15T10:24:23;6.85;;;6.13;;
34775;SDS011;20989;52.566;13.346;2022-11-15T10:27:28;14.07;;;6.03;;
34775;SDS011;20989;52.566;13.346;2022-11-15T10:30:31;10.50;;;5.90;;
34775;SDS011;20989;52.566;13.346;2022-11-15T10:33:39;6.25;;;5.63;;
34775;SDS011;20989;52.566;13.346;2022-11-15T10:36:43;6.78;;;6.18;;
34775;SDS011;20989;52.566;13.346;2022-11-15T10:40:05;6.07;;;5.47;;
34775;SDS011;20989;52.566;13.346;2022-11-15T10:43:18;16.05;;;6.03;;
34775;SDS011;20989;52.566;13.346;2022-11-15T10:46:20;6.47;;;5.10;;
34775;SDS011;20989;52.566;13.346;2022-11-15T10:49:23;5.60;;;4.75;;
34775;SDS011;20989;52.566;13.346;2022-11-15T10:52:25;6.30;;;5.13;;
34775;SDS011;20989;52.566;13.346;2022-11-15T10:55:29;5.53;;;4.53;;
34775;SDS011;20989;52.566;13.346;2022-11-15T10:58:37;8.50;;;5.35;;
34775;SDS011;20989;52.566;13.346;2022-11-15T11:01:46;7.65;;;4.90;;
34775;SDS011;20989;52.566;13.346;2022-11-15T11:04:49;7.78;;;4.85;;
34775;SDS011;20989;52.566;13.346;2022-11-15T11:08:01;5.60;;;4.90;;
34775;SDS011;20989;52.566;13.346;2022-11-15T11:11:05;7.80;;;5.32;;
34775;SDS011;20989;52.566;13.346;2022-11-15T11:14:20;12.48;;;5.22;;
34775;SDS011;20989;52.566;13.346;2022-11-15T11:20:47;6.00;;;4.70;;
34775;SDS011;20989;52.566;13.346;2022-11-15T11:23:58;8.05;;;4.55;;
34775;SDS011;20989;52.566;13.346;2022-11-15T11:30:20;5.28;;;4.78;;
34775;SDS011;20989;52.566;13.346;2022-11-15T11:50:20;5.68;;;4.65;;
34775;SDS011;20989;52.566;13.346;2022-11-15T11:56:31;4.95;;;4.55;;
34775;SDS011;20989;52.566;13.346;2022-11-15T11:59:37;4.43;;;4.07;;
34775;SDS011;20989;52.566;13.346;2022-11-15T12:02:42;4.50;;;4.10;;
34775;SDS011;20989;52.566;13.346;2022-11-15T12:06:06;5.40;;;4.03;;
34775;SDS011;20989;52.566;13.346;2022-11-15T12:12:39;3.75;;;3.33;;
34775;SDS011;20989;52.566;13.346;2022-11-15T12:15:59;4.20;;;3.90;;
34775;SDS011;20989;52.566;13.346;2022-11-15T12:19:03;3.72;;;3.42;;
34775;SDS011;20989;52.566;13.346;2022-11-15T12:22:12;5.03;;;3.72;;
34775;SDS011;20989;52.566;13.346;2022-11-15T12:31:57;4.25;;;3.88;;
34775;SDS011;20989;52.566;13.346;2022-11-15T12:35:03;6.43;;;4.20;;
34775;SDS011;20989;52.566;13.346;2022-11-15T12:38:49;7.38;;;4.13;;
34775;SDS011;20989;52.566;13.346;2022-11-15T12:45:22;4.43;;;3.72;;
34775;SDS011;20989;52.566;13.346;2022-11-15T12:57:42;5.25;;;3.30;;
34775;SDS011;20989;52.566;13.346;2022-11-15T13:00:44;3.50;;;3.30;;
34775;SDS011;20989;52.566;13.346;2022-11-15T13:10:39;5.00;;;3.30;;
34775;SDS011;20989;52.566;13.346;2022-11-15T13:13:43;5.43;;;3.33;;
34775;SDS011;20989;52.566;13.346;2022-11-15T13:16:44;4.13;;;3.70;;
34775;SDS011;20989;52.566;13.346;2022-11-15T13:19:48;3.47;;;3.28;;
34775;SDS011;20989;52.566;13.346;2022-11-15T13:26:15;3.88;;;3.55;;
34775;SDS011;20989;52.566;13.346;2022-11-15T13:29:17;6.10;;;3.53;;
34775;SDS011;20989;52.566;13.346;2022-11-15T13:32:19;4.78;;;3.53;;
34775;SDS011;20989;52.566;13.346;2022-11-15T13:35:25;3.85;;;3.55;;
34775;SDS011;20989;52.566;13.346;2022-11-15T13:38:29;7.07;;;4.15;;
34775;SDS011;20989;52.566;13.346;2022-11-15T13:41:33;4.45;;;4.05;;
34775;SDS011;20989;52.566;13.346;2022-11-15T13:44:36;4.00;;;3.65;;
34775;SDS011;20989;52.566;13.346;2022-11-15T13:47:36;6.13;;;3.50;;
34775;SDS011;20989;52.566;13.346;2022-11-15T13:50:37;3.72;;;3.42;;
34775;SDS011;20989;52.566;13.346;2022-11-15T13:53:40;4.05;;;3.75;;
34775;SDS011;20989;52.566;13.346;2022-11-15T13:56:52;3.75;;;3.50;;
34775;SDS011;20989;52.566;13.346;2022-11-15T14:00:01;4.55;;;3.08;;
34775;SDS011;20989;52.566;13.346;2022-11-15T14:06:27;5.38;;;3.72;;
34775;SDS011;20989;52.566;13.346;2022-11-15T14:12:35;10.40;;;5.03;;
34775;SDS011;20989;52.566;13.346;2022-11-15T14:15:37;4.70;;;4.30;;
34775;SDS011;20989;52.566;13.346;2022-11-15T14:18:47;7.03;;;4.07;;
34775;SDS011;20989;52.566;13.346;2022-11-15T14:25:23;4.10;;;3.70;;
34775;SDS011;20989;52.566;13.346;2022-11-15T14:31:27;4.00;;;3.50;;
34775;SDS011;20989;52.566;13.346;2022-11-15T14:34:28;4.75;;;3.75;;
34775;SDS011;20989;52.566;13.346;2022-11-15T14:37:33;3.78;;;3.45;;
34775;SDS011;20989;52.566;13.346;2022-11-15T14:40:34;5.43;;;3.63;;
34775;SDS011;20989;52.566;13.346;2022-11-15T14:43:35;4.10;;;3.65;;
34775;SDS011;20989;52.566;13.346;2022-11-15T14:46:36;4.18;;;3.78;;
34775;SDS011;20989;52.566;13.346;2022-11-15T14:49:37;3.30;;;3.10;;
34775;SDS011;20989;52.566;13.346;2022-11-15T14:52:37;4.10;;;3.58;;
34775;SDS011;20989;52.566;13.346;2022-11-15T14:55:38;3.15;;;2.95;;
34775;SDS011;20989;52.566;13.346;2022-11-15T14:58:39;3.97;;;3.13;;
34775;SDS011;20989;52.566;13.346;2022-11-15T15:01:40;3.35;;;3.15;;
34775;SDS011;20989;52.566;13.346;2022-11-15T15:04:40;4.47;;;3.17;;
34775;SDS011;20989;52.566;13.346;2022-11-15T15:07:41;10.32;;;3.63;;
34775;SDS011;20989;52.566;13.346;2022-11-15T15:10:43;4.30;;;3.08;;
34775;SDS011;20989;52.566;13.346;2022-11-15T15:13:45;3.25;;;3.05;;
34775;SDS011;20989;52.566;13.346;2022-11-15T15:16:46;5.35;;;2.88;;
34775;SDS011;20989;52.566;13.346;2022-11-15T15:19:46;3.63;;;3.33;;
34775;SDS011;20989;52.566;13.346;2022-11-15T15:22:47;3.20;;;2.90;;
34775;SDS011;20989;52.566;13.346;2022-11-15T15:25:48;2.97;;;2.78;;
34775;SDS011;20989;52.566;13.346;2022-11-15T15:28:49;3.10;;;2.90;;
34775;SDS011;20989;52.566;13.346;2022-11-15T15:31:51;3.08;;;2.75;;
34775;SDS011;20989;52.566;13.346;2022-11-15T15:34:51;2.88;;;2.67;;
34775;SDS011;20989;52.566;13.346;2022-11-15T15:37:52;2.88;;;2.67;;
34775;SDS011;20989;52.566;13.346;2022-11-15T15:40:53;2.72;;;2.50;;
34775;SDS011;20989;52.566;13.346;2022-11-15T15:43:55;3.25;;;2.47;;
34775;SDS011;20989;52.566;13.346;2022-11-15T15:46:56;2.80;;;2.55;;
34775;SDS011;20989;52.566;13.346;2022-11-15T15:49:58;3.78;;;3.47;;
34775;SDS011;20989;52.566;13.346;2022-11-15T15:53:01;3.47;;;3.17;;
34775;SDS011;20989;52.566;13.346;2022-11-15T15:56:03;4.65;;;3.30;;
34775;SDS011;20989;52.566;13.346;2022-11-15T15:59:07;3.13;;;2.92;;
34775;SDS011;20989;52.566;13.346;2022-11-15T16:02:10;4.90;;;3.60;;
34775;SDS011;20989;52.566;13.346;2022-11-15T16:05:12;6.07;;;3.58;;
34775;SDS011;20989;52.566;13.346;2022-11-15T16:08:17;7.28;;;3.53;;
34775;SDS011;20989;52.566;13.346;2022-11-15T16:11:23;5.80;;;3.85;;
34775;SDS011;20989;52.566;13.346;2022-11-15T16:14:23;6.68;;;3.08;;
34775;SDS011;20989;52.566;13.346;2022-11-15T16:17:25;3.78;;;3.45;;
34775;SDS011;20989;52.566;13.346;2022-11-15T16:20:35;4.53;;;3.47;;
34775;SDS011;20989;52.566;13.346;2022-11-15T16:23:50;4.65;;;3.50;;
34775;SDS011;20989;52.566;13.346;2022-11-15T16:26:51;3.40;;;3.20;;
34775;SDS011;20989;52.566;13.346;2022-11-15T16:29:52;7.60;;;4.70;;
34775;SDS011;20989;52.566;13.346;2022-11-15T16:32:52;6.18;;;3.92;;
34775;SDS011;20989;52.566;13.346;2022-11-15T16:35:53;4.68;;;3.20;;
34775;SDS011;20989;52.566;13.346;2022-11-15T16:38:54;4.40;;;3.83;;
34775;SDS011;20989;52.566;13.346;2022-11-15T16:41:58;3.83;;;3.53;;
34775;SDS011;20989;52.566;13.346;2022-11-15T16:44:59;4.65;;;4.15;;
34775;SDS011;20989;52.566;13.346;2022-11-15T16:48:00;6.72;;;3.42;;
34775;SDS011;20989;52.566;13.346;2022-11-15T16:51:01;4.65;;;3.70;;
34775;SDS011;20989;52.566;13.346;2022-11-15T16:54:04;3.88;;;3.65;;
34775;SDS011;20989;52.566;13.346;2022-11-15T16:57:05;14.30;;;5.75;;
34775;SDS011;20989;52.566;13.346;2022-11-15T17:00:09;6.10;;;5.50;;
34775;SDS011;20989;52.566;13.346;2022-11-15T17:03:11;5.47;;;4.97;;
34775;SDS011;20989;52.566;13.346;2022-11-15T17:06:12;5.10;;;4.70;;
34775;SDS011;20989;52.566;13.346;2022-11-15T17:09:16;5.45;;;4.95;;
34775;SDS011;20989;52.566;13.346;2022-11-15T17:12:19;11.95;;;4.35;;
34775;SDS011;20989;52.566;13.346;2022-11-15T17:15:19;11.15;;;3.88;;
34775;SDS011;20989;52.566;13.346;2022-11-15T17:18:20;11.35;;;3.78;;
34775;SDS011;20989;52.566;13.346;2022-11-15T17:21:21;9.98;;;4.40;;
34775;SDS011;20989;52.566;13.346;2022-11-15T17:24:22;8.10;;;4.13;;
34775;SDS011;20989;52.566;13.346;2022-11-15T17:27:22;4.47;;;4.15;;
34775;SDS011;20989;52.566;13.346;2022-11-15T17:30:23;8.05;;;4.10;;
34775;SDS011;20989;52.566;13.346;2022-11-15T17:33:24;6.10;;;4.05;;
34775;SDS011;20989;52.566;13.346;2022-11-15T17:36:25;4.35;;;3.95;;
34775;SDS011;20989;52.566;13.346;2022-11-15T17:39:26;4.43;;;3.88;;
34775;SDS011;20989;52.566;13.346;2022-11-15T17:42:26;6.43;;;3.80;;
34775;SDS011;20989;52.566;13.346;2022-11-15T17:45:27;4.22;;;3.80;;
34775;SDS011;20989;52.566;13.346;2022-11-15T17:48:28;4.72;;;3.95;;
34775;SDS011;20989;52.566;13.346;2022-11-15T17:51:29;4.05;;;3.40;;
34775;SDS011;20989;52.566;13.346;2022-11-15T17:54:30;3.53;;;3.22;;
34775;SDS011;20989;52.566;13.346;2022-11-15T17:57:31;4.13;;;3.75;;
34775;SDS011;20989;52.566;13.346;2022-11-15T18:00:31;3.42;;;3.22;;
34775;SDS011;20989;52.566;13.346;2022-11-15T18:03:33;4.75;;;3.42;;
34775;SDS011;20989;52.566;13.346;2022-11-15T18:06:37;3.53;;;3.00;;
34775;SDS011;20989;52.566;13.346;2022-11-15T18:09:38;3.45;;;3.20;;
34775;SDS011;20989;52.566;13.346;2022-11-15T18:12:42;3.60;;;3.30;;
34775;SDS011;20989;52.566;13.346;2022-11-15T18:15:47;3.28;;;3.08;;
34775;SDS011;20989;52.566;13.346;2022-11-15T18:18:54;3.33;;;3.13;;
34775;SDS011;20989;52.566;13.346;2022-11-15T18:21:54;3.33;;;3.13;;
34775;SDS011;20989;52.566;13.346;2022-11-15T18:24:55;3.33;;;3.13;;
34775;SDS011;20989;52.566;13.346;2022-11-15T18:27:55;3.17;;;2.97;;
34775;SDS011;20989;52.566;13.346;2022-11-15T18:30:57;3.13;;;2.92;;
34775;SDS011;20989;52.566;13.346;2022-11-15T18:33:59;9.15;;;3.30;;
34775;SDS011;20989;52.566;13.346;2022-11-15T18:37:00;4.10;;;3.70;;
34775;SDS011;20989;52.566;13.346;2022-11-15T18:40:02;3.35;;;3.15;;
34775;SDS011;20989;52.566;13.346;2022-11-15T18:43:03;3.80;;;3.50;;
34775;SDS011;20989;52.566;13.346;2022-11-15T18:46:05;3.65;;;3.45;;
34775;SDS011;20989;52.566;13.346;2022-11-15T18:49:11;3.53;;;3.33;;
34775;SDS011;20989;52.566;13.346;2022-11-15T18:52:13;4.38;;;3.30;;
34775;SDS011;20989;52.566;13.346;2022-11-15T18:55:13;3.42;;;3.13;;
34775;SDS011;20989;52.566;13.346;2022-11-15T18:58:14;3.97;;;3.67;;
34775;SDS011;20989;52.566;13.346;2022-11-15T19:01:15;3.67;;;3.42;;
34775;SDS011;20989;52.566;13.346;2022-11-15T19:04:20;3.72;;;3.42;;
34775;SDS011;20989;52.566;13.346;2022-11-15T19:07:21;3.65;;;3.22;;
34775;SDS011;20989;52.566;13.346;2022-11-15T19:10:22;3.85;;;3.38;;
34775;SDS011;20989;52.566;13.346;2022-11-15T19:13:22;3.47;;;3.25;;
34775;SDS011;20989;52.566;13.346;2022-11-15T19:16:23;3.50;;;3.20;;
34775;SDS011;20989;52.566;13.346;2022-11-15T19:19:26;11.40;;;3.50;;
34775;SDS011;20989;52.566;13.346;2022-11-15T19:22:27;3.33;;;3.13;;
34775;SDS011;20989;52.566;13.346;2022-11-15T19:25:28;3.80;;;3.47;;
34775;SDS011;20989;52.566;13.346;2022-11-15T19:28:29;3.47;;;3.28;;
34775;SDS011;20989;52.566;13.346;2022-11-15T19:31:30;3.03;;;2.83;;
34775;SDS011;20989;52.566;13.346;2022-11-15T19:34:31;3.58;;;3.28;;
34775;SDS011;20989;52.566;13.346;2022-11-15T19:37:33;3.42;;;3.13;;
34775;SDS011;20989;52.566;13.346;2022-11-15T19:40:34;3.15;;;2.95;;
34775;SDS011;20989;52.566;13.346;2022-11-15T19:43:35;3.75;;;3.55;;
34775;SDS011;20989;52.566;13.346;2022-11-15T19:46:35;3.20;;;3.00;;
34775;SDS011;20989;52.566;13.346;2022-11-15T19:49:37;3.60;;;3.30;;
34775;SDS011;20989;52.566;13.346;2022-11-15T19:52:37;3.45;;;3.25;;
34775;SDS011;20989;52.566;13.346;2022-11-15T19:55:38;3.20;;;3.00;;
34775;SDS011;20989;52.566;13.346;2022-11-15T19:58:39;3.42;;;3.22;;
34775;SDS011;20989;52.566;13.346;2022-11-15T20:01:40;3.88;;;3.58;;